Time,TemperatureF,DewpointF,PressureIn,WindDirection,WindDirectionDegrees,WindSpeedMPH,WindSpeedGustMPH,Humidity,HourlyPrecipIn,Conditions,Clouds,dailyrainin,SoftwareType,DateUTC
2013-09-20 00:14:00,81.0,71.0,29.97,NE,51,4.0,4.0,71,0.00,,,0.00,,2013-09-20 04:14:00,
2013-09-20 00:24:00,81.0,71.0,29.97,NE,51,4.0,4.0,71,0.00,,,0.00,,2013-09-20 04:24:00,
2013-09-20 00:34:00,81.0,71.0,29.97,NE,51,4.0,4.0,71,0.00,,,0.00,,2013-09-20 04:34:00,
2013-09-20 00:54:00,81.0,71.0,29.96,ENE,60,2.0,2.0,72,0.00,,,1.50,,2013-09-20 04:54:00,
2013-09-20 01:03:00,81.0,71.0,29.96,ENE,60,2.0,2.0,72,0.00,,,1.50,,2013-09-20 05:03:00,
2013-09-20 01:13:00,81.0,71.0,29.96,ENE,60,2.0,2.0,72,0.00,,,1.50,,2013-09-20 05:13:00,
2013-09-20 01:23:00,81.0,71.0,29.96,ENE,60,2.0,2.0,72,0.00,,,1.50,,2013-09-20 05:23:00,
2013-09-20 01:53:00,81.0,70.0,29.95,NNE,25,1.0,1.0,70,0.00,,,1.50,,2013-09-20 05:53:00,
2013-09-20 02:12:00,81.0,71.0,29.95,ENE,65,5.0,6.0,71,0.00,,,1.50,,2013-09-20 06:12:00,
2013-09-20 02:22:00,81.0,71.0,29.95,ENE,65,5.0,6.0,71,0.00,,,1.50,,2013-09-20 06:22:00,
2013-09-20 02:52:00,80.0,70.0,29.95,ENE,66,1.0,1.0,71,0.00,,,1.50,,2013-09-20 06:52:00,
2013-09-20 03:12:00,80.0,70.0,29.94,East,90,1.0,3.0,72,0.00,,,1.50,,2013-09-20 07:12:00,
2013-09-20 03:23:00,80.0,70.0,29.94,NE,51,2.0,2.0,72,0.00,,,1.50,,2013-09-20 07:23:00,
2013-09-20 03:53:00,80.0,71.0,29.93,NNE,25,2.0,4.0,74,0.00,,,1.50,,2013-09-20 07:53:00,
2013-09-20 04:22:00,80.0,71.0,29.93,NE,46,2.0,2.0,73,0.00,,,1.50,,2013-09-20 08:22:00,
2013-09-20 04:52:00,79.0,70.0,29.93,NE,48,3.0,3.0,73,0.00,,,1.50,,2013-09-20 08:52:00,
2013-09-20 05:22:00,79.0,69.0,29.94,NNE,30,3.0,6.0,71,0.00,,,1.50,,2013-09-20 09:22:00,
2013-09-20 05:33:00,79.0,69.0,29.94,NNE,30,3.0,6.0,71,0.00,,,1.50,,2013-09-20 09:33:00,
2013-09-20 05:53:00,79.0,69.0,29.94,NE,51,3.0,3.0,71,0.00,,,1.50,,2013-09-20 09:53:00,
2013-09-20 06:23:00,79.0,69.0,29.94,NE,34,1.0,1.0,71,0.00,,,1.50,,2013-09-20 10:23:00,
2013-09-20 06:53:00,78.0,70.0,29.94,NNE,27,0.0,0.0,76,0.00,,,1.50,,2013-09-20 10:53:00,
2013-09-20 07:03:00,78.0,70.0,29.94,NNE,27,0.0,0.0,76,0.00,,,1.50,,2013-09-20 11:03:00,
2013-09-20 07:23:00,75.0,69.0,29.94,WNW,293,0.0,0.0,82,0.00,,,1.50,,2013-09-20 11:23:00,
2013-09-20 07:52:00,75.0,70.0,29.94,WNW,295,0.0,0.0,85,0.00,,,1.50,,2013-09-20 11:52:00,
2013-09-20 08:02:00,75.0,70.0,29.94,WNW,295,0.0,0.0,85,0.00,,,1.50,,2013-09-20 12:02:00,
2013-09-20 08:22:00,76.0,72.0,29.94,NNW,346,0.0,2.0,86,0.00,,,1.50,,2013-09-20 12:22:00,
2013-09-20 08:52:00,79.0,72.0,29.95,NNW,343,2.0,3.0,79,0.00,,,1.50,,2013-09-20 12:52:00,
2013-09-20 09:22:00,81.0,70.0,29.95,NNE,14,5.0,7.0,70,0.00,,,1.50,,2013-09-20 13:22:00,
2013-09-20 09:32:00,81.0,70.0,29.95,NNE,14,5.0,7.0,70,0.00,,,1.50,,2013-09-20 13:32:00,
2013-09-20 09:53:00,82.0,69.0,29.95,NNE,18,7.0,10.0,65,0.00,,,1.50,,2013-09-20 13:53:00,
2013-09-20 10:02:00,82.0,69.0,29.95,NNE,18,7.0,10.0,65,0.00,,,1.50,,2013-09-20 14:02:00,
2013-09-20 10:11:00,82.0,69.0,29.95,NNE,18,7.0,10.0,65,0.00,,,1.50,,2013-09-20 14:11:00,
2013-09-20 10:21:00,82.0,69.0,29.95,NNE,18,7.0,10.0,65,0.00,,,1.50,,2013-09-20 14:21:00,
2013-09-20 11:22:00,84.0,70.0,29.97,NNE,23,8.0,9.0,62,0.00,,,1.50,,2013-09-20 15:22:00,
2013-09-20 11:54:00,84.0,70.0,29.97,NNE,27,5.0,10.0,64,0.00,,,1.50,,2013-09-20 15:54:00,
2013-09-20 12:13:00,85.0,70.0,29.97,NNE,32,8.0,8.0,61,0.00,,,1.50,,2013-09-20 16:13:00,
2013-09-20 12:23:00,85.0,70.0,29.97,NNE,32,8.0,8.0,61,0.00,,,1.50,,2013-09-20 16:23:00,
2013-09-20 12:53:00,85.0,70.0,29.96,North,359,7.0,9.0,60,0.00,,,1.50,,2013-09-20 16:53:00,
2013-09-20 13:13:00,84.0,67.0,29.96,North,10,11.0,11.0,56,0.00,,,1.50,,2013-09-20 17:13:00,
2013-09-20 13:24:00,84.0,67.0,29.96,North,10,11.0,11.0,56,0.00,,,1.50,,2013-09-20 17:24:00,
2013-09-20 13:34:00,84.0,67.0,29.96,North,10,11.0,11.0,56,0.00,,,1.50,,2013-09-20 17:34:00,
2013-09-20 13:53:00,84.0,68.0,29.95,NNE,24,8.0,8.0,58,0.00,,,1.50,,2013-09-20 17:53:00,
2013-09-20 14:02:00,84.0,68.0,29.95,NNE,24,8.0,8.0,58,0.00,,,1.50,,2013-09-20 18:02:00,
2013-09-20 14:12:00,84.0,68.0,29.95,NNE,24,8.0,8.0,58,0.00,,,1.50,,2013-09-20 18:12:00,
2013-09-20 14:22:00,84.0,68.0,29.95,NNE,24,8.0,8.0,58,0.00,,,1.50,,2013-09-20 18:22:00,
2013-09-20 15:12:00,85.0,69.0,29.91,East,86,6.0,6.0,59,0.00,,,1.50,,2013-09-20 19:12:00,
2013-09-20 15:22:00,85.0,69.0,29.91,East,86,6.0,6.0,59,0.00,,,1.50,,2013-09-20 19:22:00,
2013-09-20 15:32:00,85.0,69.0,29.91,East,86,6.0,6.0,59,0.00,,,1.50,,2013-09-20 19:32:00,
2013-09-20 15:53:00,85.0,67.0,29.90,NNE,25,6.0,6.0,55,0.00,,,1.50,,2013-09-20 19:53:00,
2013-09-20 16:22:00,84.0,69.0,29.90,NNE,21,6.0,7.0,60,0.00,,,1.50,,2013-09-20 20:22:00,
2013-09-20 16:32:00,84.0,69.0,29.90,NNE,21,6.0,7.0,60,0.00,,,1.50,,2013-09-20 20:32:00,
2013-09-20 16:52:00,84.0,70.0,29.90,NNE,20,7.0,7.0,62,0.00,,,1.50,,2013-09-20 20:52:00,
2013-09-20 17:02:00,84.0,70.0,29.90,NNE,20,7.0,7.0,62,0.00,,,1.50,,2013-09-20 21:02:00,
2013-09-20 17:22:00,84.0,70.0,29.89,East,86,4.0,4.0,64,0.00,,,1.50,,2013-09-20 21:22:00,
2013-09-20 17:34:00,84.0,70.0,29.89,East,86,4.0,4.0,64,0.00,,,1.50,,2013-09-20 21:34:00,
2013-09-20 17:55:00,84.0,70.0,29.89,East,86,4.0,4.0,64,0.00,,,1.50,,2013-09-20 21:55:00,
2013-09-20 18:24:00,83.0,71.0,29.88,NNE,21,4.0,7.0,67,0.00,,,1.50,,2013-09-20 22:24:00,
2013-09-20 18:53:00,83.0,71.0,29.88,NNE,30,8.0,8.0,67,0.00,,,0.00,,2013-09-20 22:53:00,
2013-09-20 19:13:00,82.0,72.0,29.88,NE,41,8.0,8.0,73,0.00,,,0.00,,2013-09-20 23:13:00,
2013-09-20 19:22:00,80.0,73.0,29.88,North,6,9.0,9.0,79,0.00,,,0.00,,2013-09-20 23:22:00,
2013-09-20 19:42:00,80.0,73.0,29.88,North,11,9.0,17.0,80,0.00,,,0.00,,2013-09-20 23:42:00,
2013-09-20 19:53:00,80.0,73.0,29.88,North,11,9.0,17.0,80,0.00,,,0.00,,2013-09-20 23:53:00,
2013-09-20 20:22:00,79.0,73.0,29.88,NNE,24,8.0,16.0,83,0.00,,,0.00,,2013-09-21 00:22:00,
2013-09-20 20:42:00,79.0,73.0,29.88,NNE,31,6.0,6.0,81,0.00,,,0.00,,2013-09-21 00:42:00,
2013-09-20 20:52:00,79.0,73.0,29.88,NNE,31,6.0,6.0,81,0.00,,,0.00,,2013-09-21 00:52:00,
2013-09-20 21:22:00,80.0,73.0,29.89,NNE,27,3.0,3.0,80,0.00,,,0.00,,2013-09-21 01:22:00,
2013-09-20 21:52:00,80.0,72.0,29.89,North,357,2.0,2.0,78,0.00,,,0.00,,2013-09-21 01:52:00,
2013-09-20 22:02:00,80.0,72.0,29.89,North,357,2.0,2.0,78,0.00,,,0.00,,2013-09-21 02:02:00,
2013-09-20 22:52:00,81.0,70.0,29.90,ENE,62,3.0,3.0,69,0.00,,,0.00,,2013-09-21 02:52:00,
2013-09-20 23:22:00,81.0,70.0,29.89,ENE,73,3.0,3.0,70,0.00,,,0.00,,2013-09-21 03:22:00,
2013-09-20 23:52:00,81.0,71.0,29.89,North,357,4.0,4.0,72,0.00,,,0.00,,2013-09-21 03:52:00,
2013-09-20 23:54:00,81.0,72.0,29.89,NE,46,3.0,5.0,73,0.00,,,0.00,,2013-09-21 03:54:00,